Fieldsville, Vermont
Current Conditions -  °F | °C
As of 1:54 AM on Thursday 23 Oct 2014 (Local Time) from KVSF Reporting Station
Light Rain Light Rain  
Wind Chill: 46°   Ceiling: 2400
Heat Index: 49°   Visibility: 8mi
Dew Point: 45°   Wind: 7mph
Humidity: 86%   Direction: 10°N
Pressure: 29.91"   Gusts: NA
Location:  43.4897°N, 72.4482°W
Report Text: KVSF 230554Z AUTO 01006KT 8SM -RA FEW017 OVC024 09/07 A2991 RMK AO2 RAE22B38 SLP129 P0001 60006 T00940072 10100 20083 56021
Loading
Personal Weather Stations






























Interactive Weather Map
Tropical Storm Tracking
New forecast layout! Learn more

10-Day Weather Forecast

Advertisements
Track Severe Weather on mobile